ドゥシャンベ空港の過去48時間の天気

ドゥシャンベ空港 (Dushanbe)

現在時刻: 7/5 08:50 +05 (7/5 03:50 UTC) 以下の時間は現地時間です。

過去48時間のMETAR気象情報
時間 風向 風速(m/s) 視程 気温(℃) 湿度(%) 気圧(hPa) 天気現象
5 08:30 西 3 4000m 27 28 1012 煙霧
5 08:00 西 4 4400m 27 28 1011 煙霧
5 07:43 西 3 4300m 26 32 1011 煙霧
5 07:30 不定 2 2800m 26 39 1011 煙霧
5 07:00 静穏 0 2700m 26 48 1011 煙霧
5 06:41 静穏 0 2900m 25 47 1011 煙霧
5 06:30 1 3000m 25 54 1010 煙霧
5 06:00 2 2800m 24 47 1010 煙霧
5 05:30 1 2700m 25 41 1010 煙霧
5 05:16 静穏 0 2800m 25 41 1010 煙霧
5 05:00 静穏 0 3700m 25 39 1009 煙霧
5 04:30 不定 1 4700m 25 41 1009 煙霧
5 04:00 西南西 1 4500m 26 37 1009 煙霧
5 03:30 西南西 1 4500m 26 39 1008 煙霧
5 03:00 静穏 0 4300m 26 42 1008 煙霧
5 02:30 不定 1 4300m 26 42 1008 煙霧
5 02:00 不定 1 4400m 28 35 1008 煙霧
5 01:30 静穏 0 4200m 28 35 1008 煙霧
5 01:00 不定 1 4300m 29 35 1008 煙霧
5 00:30 2 3300m 27 48 1008 煙霧
5 00:00 1 3400m 28 42 1008 煙霧
4 23:30 不定 1 3100m 28 48 1007 煙霧
4 23:00 東北東 1 3200m 29 40 1007 煙霧
4 22:30 東北東 2 3000m 30 38 1007 煙霧
4 22:00 3 3100m 29 43 1007 煙霧
4 21:30 不定 1 3100m 30 38 1006 煙霧
4 21:00 2 3200m 30 38 1006 煙霧
4 20:30 2 3100m 29 43 1005 煙霧
4 20:00 不定 1 2300m 31 36 1005 煙霧
4 19:30 不定 1 1600m 31 36 1004 煙霧
4 19:00 不定 2 1600m 32 31 1004 煙霧
4 18:30 西南西 2 1600m 32 31 1004 煙霧
4 18:00 南西 3 1500m 33 32 1004 煙霧
4 17:42 西南西 2 1500m 33 32 1004 煙霧
4 17:00 西南西 3 1400m 34 32 1004 煙霧
4 16:30 西南西 4 1400m 34 28 1005 煙霧
4 16:00 西南西 4 1400m 34 30 1005 煙霧
4 15:30 西南西 4 1400m 35 30 1005 煙霧
4 15:06 西南西 3 1400m 35 30 1005 煙霧
4 15:00 南西 2 1500m 35 27 1006 煙霧
4 14:30 西南西 3 1400m 35 27 1006 煙霧
4 14:00 西南西 3 1400m 35 28 1006 煙霧
4 13:30 南西 3 1400m 35 27 1006 煙霧
4 13:00 不定 2 1400m 34 28 1007 煙霧
4 12:38 不定 1 1400m 35 27 1007 煙霧
4 12:00 不定 1 1600m 34 26 1007 煙霧
4 11:30 西 3 1300m 33 28 1007 煙霧
4 11:00 西 4 1300m 32 29 1007 煙霧
4 10:30 西 5 1400m 31 31 1007 煙霧
4 10:00 西 7 1400m 31 29 1007 煙霧
4 09:30 西 5 1500m 31 27 1006 煙霧
4 09:00 西 5 2000m 30 33 1006 煙霧
4 08:30 西 5 2800m 30 31 1006 煙霧
4 08:00 西 4 4200m 29 33 1005 煙霧
4 07:56 西 4 4200m 29 33 1005 煙霧
4 07:30 不定 2 10km以上 29 40 1005
4 07:00 不定 2 9000m 26 45 1004
4 06:30 不定 1 8000m 25 47 1004
4 06:00 不定 1 10km以上 25 47 1003
4 05:30 東北東 3 10km以上 26 42 1002
4 05:00 1 10km以上 27 37 1002
4 04:30 不定 1 10km以上 26 45 1002
4 04:00 不定 1 10km以上 27 39 1001
4 03:30 1 10km以上 27 39 1001
4 03:00 2 10km以上 27 39 1001
4 02:30 1 10km以上 26 45 1001
4 02:00 2 10km以上 26 45 1000
4 01:30 東南東 2 10km以上 26 45 1000
4 01:00 不定 1 10km以上 27 42 1000
4 00:30 東北東 2 9000m 28 40 1000
4 00:00 不定 2 8000m 28 42 1000
3 23:30 東南東 2 8000m 27 45 1000
3 23:00 3 7000m 28 42 1000
3 22:30 不定 2 8000m 30 33 999
3 22:00 北東 3 9000m 31 31 999
3 21:30 東北東 2 7000m 31 33 999
3 21:00 不定 1 7000m 32 34 998
3 20:30 3 7000m 34 28 998
3 20:00 西 3 10km以上 36 21 998
3 19:30 西北西 4 10km以上 37 18 997
3 19:00 西 4 10km以上 38 19 997
3 18:30 西 4 10km以上 38 21 997
3 18:00 西南西 3 10km以上 40 22 997
3 17:30 西南西 2 10km以上 41 18 997
3 17:00 西南西 3 10km以上 41 15 997
3 16:30 不定 2 10km以上 42 14 998
3 16:00 不定 1 10km以上 42 11 998
3 15:30 不定 2 10km以上 42 16 998
3 15:00 不定 2 10km以上 42 13 999
3 14:30 不定 2 10km以上 41 15 999
3 14:00 不定 2 10km以上 41 16 999
3 13:30 不定 1 10km以上 41 17 1000
3 13:00 不定 2 10km以上 40 16 1000
3 12:30 不定 2 10km以上 40 16 1001
3 12:00 不定 2 10km以上 39 15 1001
3 11:30 東南東 3 10km以上 39 19 1001
3 11:00 不定 2 9000m 37 20 1001
3 10:30 不定 2 9000m 36 19 1002
3 10:00 不定 2 8000m 35 22 1002
3 09:30 不定 2 8000m 34 25 1002
3 09:00 南東 3 8000m 32 31 1002
UTDD 050330Z 27003MPS 4000 HZ NSC 27/07 Q1012 R09/CLRD// NOSIG RMK QFE691/0921
UTDD 050300Z 27004MPS 4400 HZ FEW024 27/07 Q1011 R09/D NOSIG RMK QFE690/0921
UTDD 050243Z 28003MPS 4300 HZ SCT024 26/08 Q1011 R09/D NOSIG RMK QFE690/0921
UTDD 050230Z VRB02MPS 2800 HZ SCT024 26/11 Q1011 R09/CLRD// NOSIG RMK QFE690/0921
UTDD 050200Z 00000MPS 2700 HZ SCT024 26/14 Q1011 R09/D NOSIG RMK QFE690/0920
UTDD 050141Z 00000MPS 2900 HZ FEW025 25/13 Q1011 R09/D NOSIG RMK QFE690/0920
UTDD 050130Z 08001MPS 3000 HZ FEW025 25/15 Q1010 R09/CLRD// NOSIG RMK QFE690/0920
UTDD 050100Z 09002MPS 2800 HZ SCT025 24/12 Q1010 R09/D NOSIG RMK QFE690/0919
UTDD 050030Z 10001MPS 2700 HZ SCT030 25/11 Q1010 R09/D NOSIG RMK QFE689/0919
UTDD 050016Z 00000MPS 2800 HZ SCT028 25/11 Q1010 R09/D NOSIG RMK QFE689/0919
UTDD 050000Z 00000MPS 3700 HZ FEW027 SCT032 25/10 Q1009 R09/D NOSIG RMK QFE689/0919
UTDD 042330Z VRB01MPS 4700 HZ SCT027 BKN034 25/11 Q1009 R09/D NOSIG RMK QFE689/0919
UTDD 042300Z 25001MPS 4500 HZ FEW029 BKN036 26/10 Q1009 R09/CLRD// NOSIG RMK QFE689/0918
UTDD 042230Z 25001MPS 4500 HZ SCT029 OVC036 26/11 Q1008 R09/D NOSIG RMK QFE688/0918
UTDD 042200Z 00000MPS 4300 HZ BKN034 OVC041 26/12 Q1008 R09/D NOSIG RMK QFE688/0918
UTDD 042130Z VRB01MPS 4300 HZ BKN032 OVC037 26/12 Q1008 R09/D NOSIG RMK QFE688/0918
UTDD 042100Z VRB01MPS 4400 HZ SCT030 OVC038 28/11 Q1008 R09/D NOSIG RMK QFE688/0918
UTDD 042030Z 00000MPS 4200 HZ SCT029 OVC038 28/11 Q1008 R09/CLRD// NOSIG RMK QFE688/0917
UTDD 042000Z VRB01MPS 4300 HZ SCT028 OVC035 29/12 Q1008 R09/D NOSIG RMK QFE688/0917
UTDD 041930Z 09002MPS 3300 HZ SCT025 OVC030 27/15 Q1008 R09/D NOSIG RMK QFE688/0917
UTDD 041900Z 09001MPS 3400 HZ BKN025 OVC033 28/14 Q1008 R09/D NOSIG RMK QFE688/0917
UTDD 041830Z VRB01MPS 3100 HZ OVC027 28/16 Q1007 R09/D NOSIG RMK QFE688/0917
UTDD 041800Z 07001MPS 3200 HZ OVC029 29/14 Q1007 R09/D NOSIG RMK QFE688/0917
UTDD 041730Z 07002MPS 3000 HZ OVC029 30/14 Q1007 R09/D NOSIG RMK QFE687/0916
UTDD 041700Z 09003MPS 3100 HZ OVC028 29/15 Q1007 R09/D NOSIG RMK QFE687/0916
UTDD 041630Z VRB01MPS 3100 HZ OVC028 30/14 Q1006 R09/D NOSIG RMK QFE687/0916
UTDD 041600Z 09002MPS 3200 HZ OVC028 30/14 Q1006 R09/D NOSIG RMK QFE687/0916
UTDD 041530Z 10002MPS 3100 HZ OVC028 29/15 Q1005 R09/D NOSIG RMK QFE686/0915
UTDD 041500Z VRB01MPS 2300 HZ FEW024 OVC027 31/14 Q1005 R09/D NOSIG RMK QFE686/0915
UTDD 041430Z VRB01MPS 1600 HZ OVC025 31/14 Q1004 R09/D TEMPO 26007MPS RMK QFE686/0914
UTDD 041400Z VRB02MPS 1600 HZ OVC023 32/13 Q1004 R09/D TEMPO 26007MPS RMK QFE686/0914
UTDD 041330Z 24002MPS 1600 HZ OVC023 32/13 Q1004 R09/D TEMPO 26007MPS RMK QFE685/0914
UTDD 041300Z 23003MPS 210V280 1500 HZ OVC022 33/14 Q1004 R09/D TEMPO 26007MPS RMK QFE685/0914
UTDD 041242Z 24002MPS 1500 HZ OVC020 33/14 Q1004 R09/D TEMPO 26007MPS RMK QFE685/0914
UTDD 041200Z 25003MPS 1400 R09/1400N HZ SCT015 OVC018 34/15 Q1004 R09/CLRD// TEMPO 26007MPS RMK QFE686/0914
UTDD 041130Z 24004MPS 1400 R09/1400D HZ SCT015 OVC018 34/13 Q1005 R09/CLRD// TEMPO 26007MPS 1200 HZ RMK QFE686/0915
UTDD 041100Z 24004MPS 1400 R09/1400N HZ BKN018 OVC026 34/14 Q1005 R09/CLRD// TEMPO 26007MPS 1200 HZ RMK QFE686/0915
UTDD 041030Z 24004MPS 200V260 1400 1300W R09/1300D HZ FEW009 BKN017 OVC025 35/15 Q1005 R09/CLRD// TEMPO 26007MPS 1200 HZ RMK QFE686/0915
UTDD 041006Z 24003MPS 1400 R09/1400D HZ FEW015 BKN017 OVC024 35/15 Q1005 R09/CLRD// TEMPO 26007MPS 1200 HZ RMK QFE686/0915
UTDD 041000Z 23002MPS 1500 1400W R09/1400U HZ FEW014 SCT017 OVC022 35/13 Q1006 R09/CLRD// TEMPO 26007MPS 1200 HZ RMK QFE686/0915
UTDD 040930Z 24003MPS 1400 1300W R09/1300N HZ FEW013 SCT017 BKN023 35/13 Q1006 R09/CLRD// TEMPO 26007MPS 1200 HZ RMK QFE687/0916
UTDD 040900Z 25003MPS 210V280 1400 1300W R09/1300D HZ FEW012 SCT016 BKN022 35/14 Q1006 R09/CLRD// TEMPO 26007MPS 1200 HZ RMK QFE687/0916
UTDD 040830Z 22003MPS 190V270 1400 1300W R09/1300N HZ FEW013 SCT016 BKN024 35/13 Q1006 R09/CLRD// TEMPO 26007MPS 1200 HZ RMK QFE687/0916
UTDD 040800Z VRB02MPS 1400 1300W R09/1300U HZ FEW013 SCT015 OVC022 34/13 Q1007 R09/CLRD// TEMPO 26007MPS 1200 HZ RMK QFE687/0916
UTDD 040738Z VRB01MPS 1400 R09/1400N HZ FEW013 SCT016 OVC022 35/13 Q1007 R09/CLRD// TEMPO 26007MPS 1200 HZ RMK QFE687/0916
UTDD 040700Z VRB01MPS 1600 HZ FEW012 SCT015 OVC022 34/12 Q1007 R09/D TEMPO 26007MPS 1200 HZ RMK QFE687/0917
UTDD 040630Z 26003MPS 1300 R09/1300N HZ FEW014 SCT016 BKN023 33/12 Q1007 R09/CLRD// TEMPO 27008MPS 1000 HZ RMK QFE687/0917
UTDD 040600Z 27004MPS 230V320 1300 R09/1300N HZ FEW014 SCT016 32/12 Q1007 R09/CLRD// TEMPO 27008MPS 1000 HZ RMK QFE687/0917
UTDD 040530Z 28005MPS 250V310 1400 1300W R09/1300N HZ FEW014 SCT016 31/12 Q1007 R09/CLRD// TEMPO 27008MPS 1000 HZ RMK QFE687/0917
UTDD 040500Z 27007MPS 1400 R09/1400N HZ FEW014 SCT017 31/11 Q1007 R09/CLRD// TEMPO 27008MPS 1000 HZ RMK QFE687/0916
UTDD 040430Z 26005MPS 1500 HZ SCT018 31/10 Q1006 R09/D TEMPO 27008MPS RMK QFE687/0916
UTDD 040400Z 26005MPS 2000 HZ SCT018 30/12 Q1006 R09/D TEMPO 27008MPS RMK QFE687/0916
UTDD 040330Z 27005MPS 2800 HZ NSC 30/11 Q1006 R09/D TEMPO 27007MPS RMK QFE687/0916
UTDD 040300Z 27004MPS 250V310 4200 HZ NSC 29/11 Q1005 R09/D TEMPO 27007MPS RMK QFE686/0915
UTDD 040256Z 28004MPS 250V310 4200 HZ NSC 29/11 Q1005 R09/CLRD// TEMPO 27007MPS RMK QFE686/0915
UTDD 040230Z VRB02MPS 9999 NSC 29/14 Q1005 R09/D NOSIG RMK QFE686/0915
UTDD 040200Z VRB02MPS 9000 NSC 26/13 Q1004 R09/D NOSIG RMK QFE686/0914
UTDD 040130Z VRB01MPS 8000 NSC 25/13 Q1004 R09/D NOSIG RMK QFE685/0914
UTDD 040100Z VRB01MPS 9999 NSC 25/13 Q1003 R09/D NOSIG RMK QFE685/0913
UTDD 040030Z 07003MPS 9999 NSC 26/12 Q1002 R09/D NOSIG RMK QFE684/0912
UTDD 040000Z 08001MPS 9999 NSC 27/11 Q1002 R09/D NOSIG RMK QFE684/0912
UTDD 032330Z VRB01MPS 9999 NSC 26/13 Q1002 R09/D NOSIG RMK QFE684/0912
UTDD 032300Z VRB01MPS 9999 NSC 27/12 Q1001 R09/D NOSIG RMK QFE684/0912
UTDD 032230Z 10001MPS 9999 NSC 27/12 Q1001 R09/D NOSIG RMK QFE683/0911
UTDD 032200Z 10002MPS 9999 NSC 27/12 Q1001 R09/D NOSIG RMK QFE683/0911
UTDD 032130Z 09001MPS 9999 NSC 26/13 Q1001 R09/D NOSIG RMK QFE683/0911
UTDD 032100Z 08002MPS 9999 NSC 26/13 Q1000 R09/D NOSIG RMK QFE683/0911
UTDD 032030Z 12002MPS 9999 NSC 26/13 Q1000 R09/D NOSIG RMK QFE683/0911
UTDD 032000Z VRB01MPS 9999 NSC 27/13 Q1000 R09/D NOSIG RMK QFE683/0911
UTDD 031930Z 06002MPS 9000 NSC 28/13 Q1000 R09/D NOSIG RMK QFE683/0910
UTDD 031900Z VRB02MPS 8000 NSC 28/14 Q1000 R09/D NOSIG RMK QFE683/0910
UTDD 031830Z 12002MPS 8000 NSC 27/14 Q1000 R09/D NOSIG RMK QFE683/0910
UTDD 031800Z 09003MPS 7000 NSC 28/14 Q1000 R09/D NOSIG RMK QFE682/0910
UTDD 031730Z VRB02MPS 8000 NSC 30/12 Q0999 R09/D NOSIG RMK QFE682/0910
UTDD 031700Z 05003MPS 9000 NSC 31/12 Q0999 R09/D NOSIG RMK QFE682/0909
UTDD 031630Z 06002MPS 7000 NSC 31/13 Q0999 R09/D NOSIG RMK QFE682/0909
UTDD 031600Z VRB01MPS 7000 NSC 32/14 Q0998 R09/D NOSIG RMK QFE681/0909
UTDD 031530Z 19003MPS 7000 NSC 34/13 Q0998 R09/D NOSIG RMK QFE681/0908
UTDD 031500Z 28003MPS 9999 NSC 36/10 Q0998 R09/D NOSIG RMK QFE681/0908
UTDD 031430Z 29004MPS 9999 NSC 37/09 Q0997 R09/D NOSIG RMK QFE681/0908
UTDD 031400Z 28004MPS 9999 NSC 38/10 Q0997 R09/D NOSIG RMK QFE681/0908
UTDD 031330Z 28004MPS 9999 NSC 38/12 Q0997 R09/D NOSIG RMK QFE681/0908
UTDD 031300Z 25003MPS 9999 NSC 40/14 Q0997 R09/D NOSIG RMK QFE681/0908
UTDD 031230Z 24002MPS 9999 NSC 41/12 Q0997 R09/D NOSIG RMK QFE681/0908
UTDD 031200Z 24003MPS 9999 NSC 41/09 Q0997 R09/D NOSIG RMK QFE681/0908
UTDD 031130Z VRB02MPS 9999 NSC 42/09 Q0998 R09/D NOSIG RMK QFE681/0908
UTDD 031100Z VRB01MPS 9999 NSC 42/06 Q0998 R09/D NOSIG RMK QFE681/0909
UTDD 031030Z VRB02MPS 9999 NSC 42/11 Q0998 R09/D NOSIG RMK QFE681/0909
UTDD 031000Z VRB02MPS 9999 NSC 42/08 Q0999 R09/D NOSIG RMK QFE682/0909
UTDD 030930Z VRB02MPS 9999 NSC 41/09 Q0999 R09/D NOSIG RMK QFE682/0909
UTDD 030900Z VRB02MPS 9999 NSC 41/10 Q0999 R09/D NOSIG RMK QFE682/0910
UTDD 030830Z VRB01MPS 9999 NSC 41/11 Q1000 R09/D NOSIG RMK QFE682/0910
UTDD 030800Z VRB02MPS 9999 NSC 40/09 Q1000 R09/D NOSIG RMK QFE683/0910
UTDD 030730Z VRB02MPS 9999 NSC 40/09 Q1001 R09/D NOSIG RMK QFE683/0911
UTDD 030700Z VRB02MPS 9999 NSC 39/08 Q1001 R09/D NOSIG RMK QFE683/0911
UTDD 030630Z 12003MPS 090V160 9999 NSC 39/11 Q1001 R09/D NOSIG RMK QFE684/0911
UTDD 030600Z VRB02MPS 9000 NSC 37/10 Q1001 R09/D NOSIG RMK QFE684/0912
UTDD 030530Z VRB02MPS 9000 NSC 36/09 Q1002 R09/D NOSIG RMK QFE684/0912
UTDD 030500Z VRB02MPS 8000 NSC 35/10 Q1002 R09/D NOSIG RMK QFE684/0912
UTDD 030430Z VRB02MPS 8000 NSC 34/11 Q1002 R09/D NOSIG RMK QFE684/0912
UTDD 030400Z 13003MPS 100V160 8000 NSC 32/13 Q1002 R09/D NOSIG RMK QFE684/0912